sensor_id;sensor_type;location;lat;lon;timestamp;temperature;humidity
4673;DHT22;61885;53.560;9.940;2024-02-23T00:01:24;9.50;74.80
4673;DHT22;61885;53.560;9.940;2024-02-23T00:03:26;9.50;74.90
4673;DHT22;61885;53.560;9.940;2024-02-23T00:05:28;9.50;75.50
4673;DHT22;61885;53.560;9.940;2024-02-23T00:07:29;9.40;75.90
4673;DHT22;61885;53.560;9.940;2024-02-23T00:09:31;9.40;76.10
4673;DHT22;61885;53.560;9.940;2024-02-23T00:11:35;9.30;77.30
4673;DHT22;61885;53.560;9.940;2024-02-23T00:13:40;9.20;78.80
4673;DHT22;61885;53.560;9.940;2024-02-23T00:15:42;9.20;79.40
4673;DHT22;61885;53.560;9.940;2024-02-23T00:17:44;9.00;79.80
4673;DHT22;61885;53.560;9.940;2024-02-23T00:19:46;9.10;79.30
4673;DHT22;61885;53.560;9.940;2024-02-23T00:21:48;9.10;79.30
4673;DHT22;61885;53.560;9.940;2024-02-23T00:23:51;9.20;78.70
4673;DHT22;61885;53.560;9.940;2024-02-23T00:25:53;9.10;78.70
4673;DHT22;61885;53.560;9.940;2024-02-23T00:27:56;9.10;78.00
4673;DHT22;61885;53.560;9.940;2024-02-23T00:29:58;9.10;77.30
4673;DHT22;61885;53.560;9.940;2024-02-23T00:32:00;9.20;76.50
4673;DHT22;61885;53.560;9.940;2024-02-23T00:34:02;9.30;76.60
4673;DHT22;61885;53.560;9.940;2024-02-23T00:36:04;9.20;75.20
4673;DHT22;61885;53.560;9.940;2024-02-23T00:38:06;9.30;74.70
4673;DHT22;61885;53.560;9.940;2024-02-23T00:40:10;9.30;74.50
4673;DHT22;61885;53.560;9.940;2024-02-23T00:42:12;9.30;74.80
4673;DHT22;61885;53.560;9.940;2024-02-23T00:44:15;9.20;75.20
4673;DHT22;61885;53.560;9.940;2024-02-23T00:46:17;9.20;76.50
4673;DHT22;61885;53.560;9.940;2024-02-23T00:48:18;9.00;79.70
4673;DHT22;61885;53.560;9.940;2024-02-23T00:50:20;8.50;84.30
4673;DHT22;61885;53.560;9.940;2024-02-23T00:52:21;7.70;87.70
4673;DHT22;61885;53.560;9.940;2024-02-23T00:54:22;7.30;89.20
4673;DHT22;61885;53.560;9.940;2024-02-23T00:56:25;7.10;90.20
4673;DHT22;61885;53.560;9.940;2024-02-23T00:58:28;7.00;91.10
4673;DHT22;61885;53.560;9.940;2024-02-23T01:00:31;6.80;91.40
4673;DHT22;61885;53.560;9.940;2024-02-23T01:02:32;6.80;90.90
4673;DHT22;61885;53.560;9.940;2024-02-23T01:04:34;6.60;92.10
4673;DHT22;61885;53.560;9.940;2024-02-23T01:06:36;6.60;91.30
4673;DHT22;61885;53.560;9.940;2024-02-23T01:08:38;6.70;90.80
4673;DHT22;61885;53.560;9.940;2024-02-23T01:10:40;6.80;90.90
4673;DHT22;61885;53.560;9.940;2024-02-23T01:12:42;6.60;91.00
4673;DHT22;61885;53.560;9.940;2024-02-23T01:14:43;6.60;90.70
4673;DHT22;61885;53.560;9.940;2024-02-23T01:16:46;6.70;90.30
4673;DHT22;61885;53.560;9.940;2024-02-23T01:18:48;6.70;89.70
4673;DHT22;61885;53.560;9.940;2024-02-23T01:20:50;6.70;89.90
4673;DHT22;61885;53.560;9.940;2024-02-23T01:22:51;6.80;90.30
4673;DHT22;61885;53.560;9.940;2024-02-23T01:24:53;6.60;90.40
4673;DHT22;61885;53.560;9.940;2024-02-23T01:26:55;6.70;90.40
4673;DHT22;61885;53.560;9.940;2024-02-23T01:28:55;6.70;90.30
4673;DHT22;61885;53.560;9.940;2024-02-23T01:30:57;6.70;90.50
4673;DHT22;61885;53.560;9.940;2024-02-23T01:33:02;6.60;90.90
4673;DHT22;61885;53.560;9.940;2024-02-23T01:35:05;6.70;90.20
4673;DHT22;61885;53.560;9.940;2024-02-23T01:37:07;6.60;90.30
4673;DHT22;61885;53.560;9.940;2024-02-23T01:39:09;6.70;90.80
4673;DHT22;61885;53.560;9.940;2024-02-23T01:41:11;6.70;90.80
4673;DHT22;61885;53.560;9.940;2024-02-23T01:43:14;6.70;90.20
4673;DHT22;61885;53.560;9.940;2024-02-23T01:45:15;6.50;89.80
4673;DHT22;61885;53.560;9.940;2024-02-23T01:47:18;6.70;89.20
4673;DHT22;61885;53.560;9.940;2024-02-23T01:49:20;6.70;88.70
4673;DHT22;61885;53.560;9.940;2024-02-23T01:51:23;6.70;89.10
4673;DHT22;61885;53.560;9.940;2024-02-23T01:53:26;6.70;88.20
4673;DHT22;61885;53.560;9.940;2024-02-23T01:55:29;6.70;88.00
4673;DHT22;61885;53.560;9.940;2024-02-23T01:57:31;6.70;88.30
4673;DHT22;61885;53.560;9.940;2024-02-23T01:59:35;6.70;88.10
4673;DHT22;61885;53.560;9.940;2024-02-23T02:01:38;6.70;87.80
4673;DHT22;61885;53.560;9.940;2024-02-23T02:03:41;6.50;87.10
4673;DHT22;61885;53.560;9.940;2024-02-23T02:05:44;6.60;87.30
4673;DHT22;61885;53.560;9.940;2024-02-23T02:07:47;6.50;87.20
4673;DHT22;61885;53.560;9.940;2024-02-23T02:09:51;6.50;87.70
4673;DHT22;61885;53.560;9.940;2024-02-23T02:11:53;6.40;87.90
4673;DHT22;61885;53.560;9.940;2024-02-23T02:13:55;6.40;87.10
4673;DHT22;61885;53.560;9.940;2024-02-23T02:15:57;6.40;87.40
4673;DHT22;61885;53.560;9.940;2024-02-23T02:17:59;6.40;87.10
4673;DHT22;61885;53.560;9.940;2024-02-23T02:20:03;6.30;86.90
4673;DHT22;61885;53.560;9.940;2024-02-23T02:22:06;6.30;86.70
4673;DHT22;61885;53.560;9.940;2024-02-23T02:24:08;6.20;87.00
4673;DHT22;61885;53.560;9.940;2024-02-23T02:26:09;6.30;87.30
4673;DHT22;61885;53.560;9.940;2024-02-23T02:28:11;6.20;87.60
4673;DHT22;61885;53.560;9.940;2024-02-23T02:30:13;6.10;87.80
4673;DHT22;61885;53.560;9.940;2024-02-23T02:32:14;6.10;87.80
4673;DHT22;61885;53.560;9.940;2024-02-23T02:34:16;6.00;87.90
4673;DHT22;61885;53.560;9.940;2024-02-23T02:36:19;6.10;88.40
4673;DHT22;61885;53.560;9.940;2024-02-23T02:38:21;6.00;88.30
4673;DHT22;61885;53.560;9.940;2024-02-23T02:40:23;6.00;88.10
4673;DHT22;61885;53.560;9.940;2024-02-23T02:42:25;6.00;88.80
4673;DHT22;61885;53.560;9.940;2024-02-23T02:44:29;6.00;89.00
4673;DHT22;61885;53.560;9.940;2024-02-23T02:46:31;6.00;89.20
4673;DHT22;61885;53.560;9.940;2024-02-23T02:48:33;5.80;88.60
4673;DHT22;61885;53.560;9.940;2024-02-23T02:50:34;5.70;89.00
4673;DHT22;61885;53.560;9.940;2024-02-23T02:52:36;5.80;88.90
4673;DHT22;61885;53.560;9.940;2024-02-23T02:54:40;5.80;89.10
4673;DHT22;61885;53.560;9.940;2024-02-23T02:56:42;5.60;89.10
4673;DHT22;61885;53.560;9.940;2024-02-23T02:58:44;5.80;89.00
4673;DHT22;61885;53.560;9.940;2024-02-23T03:00:46;5.80;89.00
4673;DHT22;61885;53.560;9.940;2024-02-23T03:02:48;5.70;89.80
4673;DHT22;61885;53.560;9.940;2024-02-23T03:04:49;5.70;89.60
4673;DHT22;61885;53.560;9.940;2024-02-23T03:06:51;5.50;89.60
4673;DHT22;61885;53.560;9.940;2024-02-23T03:08:53;5.80;89.50
4673;DHT22;61885;53.560;9.940;2024-02-23T03:10:56;5.60;89.80
4673;DHT22;61885;53.560;9.940;2024-02-23T03:12:58;5.60;89.30
4673;DHT22;61885;53.560;9.940;2024-02-23T03:15:00;5.50;89.40
4673;DHT22;61885;53.560;9.940;2024-02-23T03:17:03;5.60;89.40
4673;DHT22;61885;53.560;9.940;2024-02-23T03:19:05;5.50;89.10
4673;DHT22;61885;53.560;9.940;2024-02-23T03:21:08;5.60;89.70
4673;DHT22;61885;53.560;9.940;2024-02-23T03:23:11;5.60;89.40
4673;DHT22;61885;53.560;9.940;2024-02-23T03:25:13;5.50;89.20
4673;DHT22;61885;53.560;9.940;2024-02-23T03:27:16;5.60;88.70
4673;DHT22;61885;53.560;9.940;2024-02-23T03:29:18;5.60;88.60
4673;DHT22;61885;53.560;9.940;2024-02-23T03:31:19;5.50;88.20
4673;DHT22;61885;53.560;9.940;2024-02-23T03:33:20;5.60;88.10
4673;DHT22;61885;53.560;9.940;2024-02-23T03:35:22;5.50;88.20
4673;DHT22;61885;53.560;9.940;2024-02-23T03:37:24;5.50;88.50
4673;DHT22;61885;53.560;9.940;2024-02-23T03:39:26;5.50;88.00
4673;DHT22;61885;53.560;9.940;2024-02-23T03:41:28;5.30;88.80
4673;DHT22;61885;53.560;9.940;2024-02-23T03:43:32;5.30;88.60
4673;DHT22;61885;53.560;9.940;2024-02-23T03:45:34;5.40;88.20
4673;DHT22;61885;53.560;9.940;2024-02-23T03:47:36;5.30;88.10
4673;DHT22;61885;53.560;9.940;2024-02-23T03:49:38;5.30;88.50
4673;DHT22;61885;53.560;9.940;2024-02-23T03:51:39;5.30;88.60
4673;DHT22;61885;53.560;9.940;2024-02-23T03:53:41;5.30;88.50
4673;DHT22;61885;53.560;9.940;2024-02-23T03:55:43;5.30;88.80
4673;DHT22;61885;53.560;9.940;2024-02-23T03:57:45;5.20;88.70
4673;DHT22;61885;53.560;9.940;2024-02-23T03:59:57;5.30;87.70
4673;DHT22;61885;53.560;9.940;2024-02-23T04:02:00;5.20;87.50
4673;DHT22;61885;53.560;9.940;2024-02-23T04:04:02;5.10;86.80
4673;DHT22;61885;53.560;9.940;2024-02-23T04:06:04;5.00;86.90
4673;DHT22;61885;53.560;9.940;2024-02-23T04:08:06;5.10;86.90
4673;DHT22;61885;53.560;9.940;2024-02-23T04:10:09;5.10;87.50
4673;DHT22;61885;53.560;9.940;2024-02-23T04:12:10;5.00;87.80
4673;DHT22;61885;53.560;9.940;2024-02-23T04:14:12;5.20;87.60
4673;DHT22;61885;53.560;9.940;2024-02-23T04:16:16;5.20;87.10
4673;DHT22;61885;53.560;9.940;2024-02-23T04:18:18;5.30;87.50
4673;DHT22;61885;53.560;9.940;2024-02-23T04:20:20;5.10;87.60
4673;DHT22;61885;53.560;9.940;2024-02-23T04:22:24;5.30;87.50
4673;DHT22;61885;53.560;9.940;2024-02-23T04:24:26;5.20;87.40
4673;DHT22;61885;53.560;9.940;2024-02-23T04:26:28;5.30;87.60
4673;DHT22;61885;53.560;9.940;2024-02-23T04:28:30;5.40;87.40
4673;DHT22;61885;53.560;9.940;2024-02-23T04:30:32;5.50;87.30
4673;DHT22;61885;53.560;9.940;2024-02-23T04:32:35;5.30;87.50
4673;DHT22;61885;53.560;9.940;2024-02-23T04:34:37;5.30;87.30
4673;DHT22;61885;53.560;9.940;2024-02-23T04:36:37;5.30;87.30
4673;DHT22;61885;53.560;9.940;2024-02-23T04:38:39;5.40;87.40
4673;DHT22;61885;53.560;9.940;2024-02-23T04:40:40;5.30;87.80
4673;DHT22;61885;53.560;9.940;2024-02-23T04:42:43;5.20;87.30
4673;DHT22;61885;53.560;9.940;2024-02-23T04:44:46;5.30;87.20
4673;DHT22;61885;53.560;9.940;2024-02-23T04:46:46;5.10;87.20
4673;DHT22;61885;53.560;9.940;2024-02-23T04:48:50;5.30;86.90
4673;DHT22;61885;53.560;9.940;2024-02-23T04:50:53;5.40;87.00
4673;DHT22;61885;53.560;9.940;2024-02-23T04:52:55;5.30;87.00
4673;DHT22;61885;53.560;9.940;2024-02-23T04:54:57;5.50;87.20
4673;DHT22;61885;53.560;9.940;2024-02-23T04:56:58;5.40;87.10
4673;DHT22;61885;53.560;9.940;2024-02-23T04:59:01;5.30;86.70
4673;DHT22;61885;53.560;9.940;2024-02-23T05:01:04;5.50;87.30
4673;DHT22;61885;53.560;9.940;2024-02-23T05:03:06;5.30;87.10
4673;DHT22;61885;53.560;9.940;2024-02-23T05:05:09;5.30;87.20
4673;DHT22;61885;53.560;9.940;2024-02-23T05:07:11;5.20;87.50
4673;DHT22;61885;53.560;9.940;2024-02-23T05:09:13;5.40;87.60
4673;DHT22;61885;53.560;9.940;2024-02-23T05:11:15;5.30;87.60
4673;DHT22;61885;53.560;9.940;2024-02-23T05:13:17;5.20;87.60
4673;DHT22;61885;53.560;9.940;2024-02-23T05:15:19;5.20;87.60
4673;DHT22;61885;53.560;9.940;2024-02-23T05:17:21;5.30;87.60
4673;DHT22;61885;53.560;9.940;2024-02-23T05:19:23;5.10;87.50
4673;DHT22;61885;53.560;9.940;2024-02-23T05:21:27;5.20;87.60
4673;DHT22;61885;53.560;9.940;2024-02-23T05:23:29;5.30;87.50
4673;DHT22;61885;53.560;9.940;2024-02-23T05:25:31;5.20;87.50
4673;DHT22;61885;53.560;9.940;2024-02-23T05:27:33;5.20;87.20
4673;DHT22;61885;53.560;9.940;2024-02-23T05:29:35;5.20;87.20
4673;DHT22;61885;53.560;9.940;2024-02-23T05:31:45;5.10;87.00
4673;DHT22;61885;53.560;9.940;2024-02-23T05:33:47;5.20;87.20
4673;DHT22;61885;53.560;9.940;2024-02-23T05:35:49;5.20;87.20
4673;DHT22;61885;53.560;9.940;2024-02-23T05:37:52;5.20;87.20
4673;DHT22;61885;53.560;9.940;2024-02-23T05:39:55;5.20;87.10
4673;DHT22;61885;53.560;9.940;2024-02-23T05:42:00;5.10;86.80
4673;DHT22;61885;53.560;9.940;2024-02-23T05:44:02;5.30;86.60
4673;DHT22;61885;53.560;9.940;2024-02-23T05:46:06;5.40;86.60
4673;DHT22;61885;53.560;9.940;2024-02-23T05:48:08;5.20;86.10
4673;DHT22;61885;53.560;9.940;2024-02-23T05:50:09;5.20;85.80
4673;DHT22;61885;53.560;9.940;2024-02-23T05:52:11;5.20;85.90
4673;DHT22;61885;53.560;9.940;2024-02-23T05:54:14;5.20;85.50
4673;DHT22;61885;53.560;9.940;2024-02-23T05:56:15;5.20;85.30
4673;DHT22;61885;53.560;9.940;2024-02-23T05:58:17;5.20;84.60
4673;DHT22;61885;53.560;9.940;2024-02-23T06:00:19;5.20;85.00
4673;DHT22;61885;53.560;9.940;2024-02-23T06:02:22;5.30;85.30
4673;DHT22;61885;53.560;9.940;2024-02-23T06:04:24;5.40;85.20
4673;DHT22;61885;53.560;9.940;2024-02-23T06:06:27;5.30;85.20
4673;DHT22;61885;53.560;9.940;2024-02-23T06:08:28;5.10;85.50
4673;DHT22;61885;53.560;9.940;2024-02-23T06:10:32;5.20;86.30
4673;DHT22;61885;53.560;9.940;2024-02-23T06:12:33;5.20;85.40
4673;DHT22;61885;53.560;9.940;2024-02-23T06:14:35;5.30;84.90
4673;DHT22;61885;53.560;9.940;2024-02-23T06:16:36;5.20;84.80
4673;DHT22;61885;53.560;9.940;2024-02-23T06:18:38;5.00;84.90
4673;DHT22;61885;53.560;9.940;2024-02-23T06:20:41;5.20;85.00
4673;DHT22;61885;53.560;9.940;2024-02-23T06:22:43;5.10;84.70
4673;DHT22;61885;53.560;9.940;2024-02-23T06:24:45;5.10;84.80
4673;DHT22;61885;53.560;9.940;2024-02-23T06:26:48;5.10;84.60
4673;DHT22;61885;53.560;9.940;2024-02-23T06:28:49;4.90;84.70
4673;DHT22;61885;53.560;9.940;2024-02-23T06:30:51;4.90;85.00
4673;DHT22;61885;53.560;9.940;2024-02-23T06:32:53;5.00;84.90
4673;DHT22;61885;53.560;9.940;2024-02-23T06:34:55;4.90;84.90
4673;DHT22;61885;53.560;9.940;2024-02-23T06:36:57;5.00;84.80
4673;DHT22;61885;53.560;9.940;2024-02-23T06:38:58;5.00;84.80
4673;DHT22;61885;53.560;9.940;2024-02-23T06:41:00;5.10;85.10
4673;DHT22;61885;53.560;9.940;2024-02-23T06:43:02;5.00;85.20
4673;DHT22;61885;53.560;9.940;2024-02-23T06:45:05;4.80;85.30
4673;DHT22;61885;53.560;9.940;2024-02-23T06:47:08;5.00;85.50
4673;DHT22;61885;53.560;9.940;2024-02-23T06:49:10;4.90;85.50
4673;DHT22;61885;53.560;9.940;2024-02-23T06:51:11;5.00;85.70
4673;DHT22;61885;53.560;9.940;2024-02-23T06:53:13;4.80;85.90
4673;DHT22;61885;53.560;9.940;2024-02-23T06:55:15;4.80;85.80
4673;DHT22;61885;53.560;9.940;2024-02-23T06:57:18;4.80;86.00
4673;DHT22;61885;53.560;9.940;2024-02-23T06:59:21;4.90;86.40
4673;DHT22;61885;53.560;9.940;2024-02-23T07:01:24;4.90;86.00
4673;DHT22;61885;53.560;9.940;2024-02-23T07:03:27;4.80;86.30
4673;DHT22;61885;53.560;9.940;2024-02-23T07:05:28;5.00;86.50
4673;DHT22;61885;53.560;9.940;2024-02-23T07:07:30;4.80;86.40
4673;DHT22;61885;53.560;9.940;2024-02-23T07:09:33;4.90;86.40
4673;DHT22;61885;53.560;9.940;2024-02-23T07:11:35;4.80;86.50
4673;DHT22;61885;53.560;9.940;2024-02-23T07:13:37;5.00;86.30
4673;DHT22;61885;53.560;9.940;2024-02-23T07:15:40;5.00;88.00
4673;DHT22;61885;53.560;9.940;2024-02-23T07:17:42;5.20;86.80
4673;DHT22;61885;53.560;9.940;2024-02-23T07:19:43;5.10;86.20
4673;DHT22;61885;53.560;9.940;2024-02-23T07:21:44;5.00;86.50
4673;DHT22;61885;53.560;9.940;2024-02-23T07:23:46;4.90;86.70
4673;DHT22;61885;53.560;9.940;2024-02-23T07:25:48;5.00;86.70
4673;DHT22;61885;53.560;9.940;2024-02-23T07:27:51;5.10;86.80
4673;DHT22;61885;53.560;9.940;2024-02-23T07:29:53;5.00;86.60
4673;DHT22;61885;53.560;9.940;2024-02-23T07:31:55;5.10;86.40
4673;DHT22;61885;53.560;9.940;2024-02-23T07:33:57;5.10;86.50
4673;DHT22;61885;53.560;9.940;2024-02-23T07:35:59;5.00;86.70
4673;DHT22;61885;53.560;9.940;2024-02-23T07:38:00;5.00;86.90
4673;DHT22;61885;53.560;9.940;2024-02-23T07:40:02;5.20;86.80
4673;DHT22;61885;53.560;9.940;2024-02-23T07:42:04;5.20;87.40
4673;DHT22;61885;53.560;9.940;2024-02-23T07:44:08;5.00;88.10
4673;DHT22;61885;53.560;9.940;2024-02-23T07:46:11;5.00;88.30
4673;DHT22;61885;53.560;9.940;2024-02-23T07:48:14;5.10;88.70
4673;DHT22;61885;53.560;9.940;2024-02-23T07:50:16;5.00;89.30
4673;DHT22;61885;53.560;9.940;2024-02-23T07:52:19;5.10;88.80
4673;DHT22;61885;53.560;9.940;2024-02-23T07:54:20;5.00;88.50
4673;DHT22;61885;53.560;9.940;2024-02-23T07:56:21;5.10;87.60
4673;DHT22;61885;53.560;9.940;2024-02-23T07:58:23;5.10;87.40
4673;DHT22;61885;53.560;9.940;2024-02-23T08:00:26;5.20;86.80
4673;DHT22;61885;53.560;9.940;2024-02-23T08:02:28;5.10;86.30
4673;DHT22;61885;53.560;9.940;2024-02-23T08:04:31;5.30;86.30
4673;DHT22;61885;53.560;9.940;2024-02-23T08:06:32;5.40;85.50
4673;DHT22;61885;53.560;9.940;2024-02-23T08:08:34;5.30;85.00
4673;DHT22;61885;53.560;9.940;2024-02-23T08:10:36;5.40;84.70
4673;DHT22;61885;53.560;9.940;2024-02-23T08:12:38;5.50;84.20
4673;DHT22;61885;53.560;9.940;2024-02-23T08:14:40;5.50;83.70
4673;DHT22;61885;53.560;9.940;2024-02-23T08:16:42;5.60;83.00
4673;DHT22;61885;53.560;9.940;2024-02-23T08:18:44;5.70;83.00
4673;DHT22;61885;53.560;9.940;2024-02-23T08:20:47;5.70;83.30
4673;DHT22;61885;53.560;9.940;2024-02-23T08:22:49;5.80;83.10
4673;DHT22;61885;53.560;9.940;2024-02-23T08:24:51;5.80;82.90
4673;DHT22;61885;53.560;9.940;2024-02-23T08:26:52;5.60;82.20
4673;DHT22;61885;53.560;9.940;2024-02-23T08:28:55;5.70;81.70
4673;DHT22;61885;53.560;9.940;2024-02-23T08:30:56;5.70;82.00
4673;DHT22;61885;53.560;9.940;2024-02-23T08:32:58;5.90;81.70
4673;DHT22;61885;53.560;9.940;2024-02-23T08:35:00;5.80;81.20
4673;DHT22;61885;53.560;9.940;2024-02-23T08:37:03;6.00;81.40
4673;DHT22;61885;53.560;9.940;2024-02-23T08:39:05;6.00;80.80
4673;DHT22;61885;53.560;9.940;2024-02-23T08:41:07;6.00;81.20
4673;DHT22;61885;53.560;9.940;2024-02-23T08:43:08;6.20;80.60
4673;DHT22;61885;53.560;9.940;2024-02-23T08:45:10;6.20;80.20
4673;DHT22;61885;53.560;9.940;2024-02-23T08:47:13;6.20;79.50
4673;DHT22;61885;53.560;9.940;2024-02-23T08:49:14;6.30;79.40
4673;DHT22;61885;53.560;9.940;2024-02-23T08:51:16;6.30;79.30
4673;DHT22;61885;53.560;9.940;2024-02-23T08:53:19;6.50;79.30
4673;DHT22;61885;53.560;9.940;2024-02-23T08:55:21;6.50;78.40
4673;DHT22;61885;53.560;9.940;2024-02-23T08:57:23;6.50;78.50
4673;DHT22;61885;53.560;9.940;2024-02-23T08:59:24;6.70;78.90
4673;DHT22;61885;53.560;9.940;2024-02-23T09:01:26;6.70;78.20
4673;DHT22;61885;53.560;9.940;2024-02-23T09:03:28;6.60;77.30
4673;DHT22;61885;53.560;9.940;2024-02-23T09:05:30;6.70;77.50
4673;DHT22;61885;53.560;9.940;2024-02-23T09:07:31;6.70;77.10
4673;DHT22;61885;53.560;9.940;2024-02-23T09:09:34;6.80;77.60
4673;DHT22;61885;53.560;9.940;2024-02-23T09:11:36;6.70;77.40
4673;DHT22;61885;53.560;9.940;2024-02-23T09:13:39;6.70;77.40
4673;DHT22;61885;53.560;9.940;2024-02-23T09:15:42;6.80;77.50
4673;DHT22;61885;53.560;9.940;2024-02-23T09:17:44;6.70;77.50
4673;DHT22;61885;53.560;9.940;2024-02-23T09:19:46;6.70;77.70
4673;DHT22;61885;53.560;9.940;2024-02-23T09:21:47;6.80;77.50
4673;DHT22;61885;53.560;9.940;2024-02-23T09:23:49;6.90;77.60
4673;DHT22;61885;53.560;9.940;2024-02-23T09:25:52;6.90;77.60
4673;DHT22;61885;53.560;9.940;2024-02-23T09:27:56;7.00;77.70
4673;DHT22;61885;53.560;9.940;2024-02-23T09:29:58;7.00;76.90
4673;DHT22;61885;53.560;9.940;2024-02-23T09:32:00;7.00;76.50
4673;DHT22;61885;53.560;9.940;2024-02-23T09:34:02;6.90;77.00
4673;DHT22;61885;53.560;9.940;2024-02-23T09:36:05;7.10;76.60
4673;DHT22;61885;53.560;9.940;2024-02-23T09:38:06;6.80;77.00
4673;DHT22;61885;53.560;9.940;2024-02-23T09:40:09;6.90;77.00
4673;DHT22;61885;53.560;9.940;2024-02-23T09:42:12;7.00;76.70
4673;DHT22;61885;53.560;9.940;2024-02-23T09:44:14;7.00;76.50
4673;DHT22;61885;53.560;9.940;2024-02-23T09:46:19;7.20;76.40
4673;DHT22;61885;53.560;9.940;2024-02-23T09:48:21;7.10;76.50
4673;DHT22;61885;53.560;9.940;2024-02-23T09:50:24;7.00;76.80
4673;DHT22;61885;53.560;9.940;2024-02-23T09:52:26;7.10;76.10
4673;DHT22;61885;53.560;9.940;2024-02-23T09:54:29;7.10;76.00
4673;DHT22;61885;53.560;9.940;2024-02-23T09:56:31;7.20;76.10
4673;DHT22;61885;53.560;9.940;2024-02-23T09:58:36;7.30;76.10
4673;DHT22;61885;53.560;9.940;2024-02-23T10:00:38;7.50;75.90
4673;DHT22;61885;53.560;9.940;2024-02-23T10:02:41;7.50;75.80
4673;DHT22;61885;53.560;9.940;2024-02-23T10:04:43;7.60;74.30
4673;DHT22;61885;53.560;9.940;2024-02-23T10:06:46;7.60;74.20
4673;DHT22;61885;53.560;9.940;2024-02-23T10:08:48;7.50;74.60
4673;DHT22;61885;53.560;9.940;2024-02-23T10:10:50;7.50;74.90
4673;DHT22;61885;53.560;9.940;2024-02-23T10:12:53;7.50;74.10
4673;DHT22;61885;53.560;9.940;2024-02-23T10:14:56;7.70;74.30
4673;DHT22;61885;53.560;9.940;2024-02-23T10:16:59;7.70;73.90
4673;DHT22;61885;53.560;9.940;2024-02-23T10:19:02;7.70;73.70
4673;DHT22;61885;53.560;9.940;2024-02-23T10:21:04;7.60;73.20
4673;DHT22;61885;53.560;9.940;2024-02-23T10:23:07;7.70;73.30
4673;DHT22;61885;53.560;9.940;2024-02-23T10:25:09;7.70;73.20
4673;DHT22;61885;53.560;9.940;2024-02-23T10:27:11;7.80;72.50
4673;DHT22;61885;53.560;9.940;2024-02-23T10:29:12;7.70;72.20
4673;DHT22;61885;53.560;9.940;2024-02-23T10:31:16;7.70;73.00
4673;DHT22;61885;53.560;9.940;2024-02-23T10:33:22;7.90;72.90
4673;DHT22;61885;53.560;9.940;2024-02-23T10:35:25;8.00;72.20
4673;DHT22;61885;53.560;9.940;2024-02-23T10:37:28;7.80;72.60
4673;DHT22;61885;53.560;9.940;2024-02-23T10:39:31;7.90;72.50
4673;DHT22;61885;53.560;9.940;2024-02-23T10:41:35;7.90;72.70
4673;DHT22;61885;53.560;9.940;2024-02-23T10:43:44;7.90;71.90
4673;DHT22;61885;53.560;9.940;2024-02-23T10:45:46;7.90;71.90
4673;DHT22;61885;53.560;9.940;2024-02-23T10:47:50;7.80;71.00
4673;DHT22;61885;53.560;9.940;2024-02-23T10:49:53;7.90;71.50
4673;DHT22;61885;53.560;9.940;2024-02-23T10:51:55;7.80;71.40
4673;DHT22;61885;53.560;9.940;2024-02-23T10:53:57;7.90;71.70
4673;DHT22;61885;53.560;9.940;2024-02-23T10:56:00;7.90;71.80
4673;DHT22;61885;53.560;9.940;2024-02-23T10:58:02;8.10;71.60
4673;DHT22;61885;53.560;9.940;2024-02-23T11:00:06;8.00;71.70
4673;DHT22;61885;53.560;9.940;2024-02-23T11:02:10;8.00;72.10
4673;DHT22;61885;53.560;9.940;2024-02-23T11:04:14;8.00;71.70
4673;DHT22;61885;53.560;9.940;2024-02-23T11:06:15;7.90;71.30
4673;DHT22;61885;53.560;9.940;2024-02-23T11:08:21;7.90;71.00
4673;DHT22;61885;53.560;9.940;2024-02-23T11:10:23;7.90;70.80
4673;DHT22;61885;53.560;9.940;2024-02-23T11:12:29;8.00;71.00
4673;DHT22;61885;53.560;9.940;2024-02-23T11:14:31;8.00;70.70
4673;DHT22;61885;53.560;9.940;2024-02-23T11:16:34;8.00;70.90
4673;DHT22;61885;53.560;9.940;2024-02-23T11:18:40;7.90;70.90
4673;DHT22;61885;53.560;9.940;2024-02-23T11:20:43;8.00;71.00
4673;DHT22;61885;53.560;9.940;2024-02-23T11:22:45;8.10;70.80
4673;DHT22;61885;53.560;9.940;2024-02-23T11:24:53;8.10;70.70
4673;DHT22;61885;53.560;9.940;2024-02-23T11:26:56;8.10;71.10
4673;DHT22;61885;53.560;9.940;2024-02-23T11:28:58;8.00;70.60
4673;DHT22;61885;53.560;9.940;2024-02-23T11:31:02;8.00;70.30
4673;DHT22;61885;53.560;9.940;2024-02-23T11:33:12;7.90;71.00
4673;DHT22;61885;53.560;9.940;2024-02-23T11:35:15;8.00;71.00
4673;DHT22;61885;53.560;9.940;2024-02-23T11:37:18;8.10;70.80
4673;DHT22;61885;53.560;9.940;2024-02-23T11:39:20;8.10;70.60
4673;DHT22;61885;53.560;9.940;2024-02-23T11:41:22;8.20;70.50
4673;DHT22;61885;53.560;9.940;2024-02-23T11:43:25;8.30;70.10
4673;DHT22;61885;53.560;9.940;2024-02-23T11:45:28;8.20;70.20
4673;DHT22;61885;53.560;9.940;2024-02-23T11:47:30;8.30;70.20
4673;DHT22;61885;53.560;9.940;2024-02-23T11:49:32;8.30;70.10
4673;DHT22;61885;53.560;9.940;2024-02-23T11:51:34;8.40;70.10
4673;DHT22;61885;53.560;9.940;2024-02-23T11:53:36;8.50;69.90
4673;DHT22;61885;53.560;9.940;2024-02-23T11:55:38;8.30;69.60
4673;DHT22;61885;53.560;9.940;2024-02-23T11:57:40;8.30;70.00
4673;DHT22;61885;53.560;9.940;2024-02-23T11:59:42;8.40;69.50
4673;DHT22;61885;53.560;9.940;2024-02-23T12:01:45;8.50;69.30
4673;DHT22;61885;53.560;9.940;2024-02-23T12:03:47;8.40;68.20
4673;DHT22;61885;53.560;9.940;2024-02-23T12:05:49;8.40;68.20
4673;DHT22;61885;53.560;9.940;2024-02-23T12:07:50;8.40;67.60
4673;DHT22;61885;53.560;9.940;2024-02-23T12:09:55;8.40;67.80
4673;DHT22;61885;53.560;9.940;2024-02-23T12:11:57;8.30;68.40
4673;DHT22;61885;53.560;9.940;2024-02-23T12:13:59;8.40;68.20
4673;DHT22;61885;53.560;9.940;2024-02-23T12:16:03;8.40;68.30
4673;DHT22;61885;53.560;9.940;2024-02-23T12:18:06;8.40;68.30
4673;DHT22;61885;53.560;9.940;2024-02-23T12:20:09;8.40;68.90
4673;DHT22;61885;53.560;9.940;2024-02-23T12:22:11;8.40;68.70
4673;DHT22;61885;53.560;9.940;2024-02-23T12:24:13;8.30;68.70
4673;DHT22;61885;53.560;9.940;2024-02-23T12:26:17;8.20;68.20
4673;DHT22;61885;53.560;9.940;2024-02-23T12:28:19;8.20;66.20
4673;DHT22;61885;53.560;9.940;2024-02-23T12:30:20;8.20;67.60
4673;DHT22;61885;53.560;9.940;2024-02-23T12:32:22;8.20;67.00
4673;DHT22;61885;53.560;9.940;2024-02-23T12:34:25;8.20;67.90
4673;DHT22;61885;53.560;9.940;2024-02-23T12:36:27;8.10;68.50
4673;DHT22;61885;53.560;9.940;2024-02-23T12:38:31;8.20;68.00
4673;DHT22;61885;53.560;9.940;2024-02-23T12:40:33;8.20;67.50
4673;DHT22;61885;53.560;9.940;2024-02-23T12:42:36;8.30;67.00
4673;DHT22;61885;53.560;9.940;2024-02-23T12:44:38;8.30;67.30
4673;DHT22;61885;53.560;9.940;2024-02-23T12:46:40;8.30;67.10
4673;DHT22;61885;53.560;9.940;2024-02-23T12:48:42;8.40;67.20
4673;DHT22;61885;53.560;9.940;2024-02-23T12:50:44;8.40;67.00
4673;DHT22;61885;53.560;9.940;2024-02-23T12:52:45;8.40;67.10
4673;DHT22;61885;53.560;9.940;2024-02-23T12:54:47;8.60;66.50
4673;DHT22;61885;53.560;9.940;2024-02-23T12:56:49;8.50;66.00
4673;DHT22;61885;53.560;9.940;2024-02-23T12:58:51;8.50;66.10
4673;DHT22;61885;53.560;9.940;2024-02-23T13:00:55;8.50;66.40
4673;DHT22;61885;53.560;9.940;2024-02-23T13:02:57;8.50;66.30
4673;DHT22;61885;53.560;9.940;2024-02-23T13:04:58;8.70;66.10
4673;DHT22;61885;53.560;9.940;2024-02-23T13:07:00;8.70;66.00
4673;DHT22;61885;53.560;9.940;2024-02-23T13:09:03;8.70;65.90
4673;DHT22;61885;53.560;9.940;2024-02-23T13:11:04;8.70;66.00
4673;DHT22;61885;53.560;9.940;2024-02-23T13:13:06;8.70;65.80
4673;DHT22;61885;53.560;9.940;2024-02-23T13:15:09;8.70;65.60
4673;DHT22;61885;53.560;9.940;2024-02-23T13:17:11;8.70;65.90
4673;DHT22;61885;53.560;9.940;2024-02-23T13:19:15;8.60;66.20